Time;durP1;ratioP1;P1;durP2;ratioP2;P2;SDS_P1;SDS_P2;PMS_P1;PMS_P2;Temp;Humidity;BMP_temperature;BMP_pressure;BME280_temperature;BME280_humidity;BME280_pressure;Samples;Min_cycle;Max_cycle;Signal;HPM_P1;HPM_P2
2023/01/22 00:01:24;;;;;;;;;69.00;52.00;;;;;1.14;81.19;103069.59;5138598;27;45447;-62
2023/01/22 00:03:49;;;;;;;;;79.67;53.00;;;;;1.24;81.24;103096.94;5138485;27;45401;-62
2023/01/22 00:06:14;;;;;;;;;61.67;45.00;;;;;1.24;81.70;103089.16;5131583;27;45548;-62
2023/01/22 00:08:40;;;;;;;;;71.33;51.00;;;;;1.14;81.58;103074.78;5126584;27;46177;-62
2023/01/22 00:11:05;;;;;;;;;66.33;51.00;;;;;1.21;81.53;103090.75;5117723;27;45505;-61
2023/01/22 00:13:31;;;;;;;;;70.67;51.67;;;;;1.16;81.42;103081.84;5117767;27;45373;-62
2023/01/22 00:15:58;;;;;;;;;60.67;49.00;;;;;1.23;81.46;103092.53;5117851;27;45556;-62
2023/01/22 00:18:24;;;;;;;;;86.25;67.50;;;;;1.21;81.23;103101.13;5117798;27;46266;-62
2023/01/22 00:20:51;;;;;;;;;87.75;64.00;;;;;0.97;81.26;103060.88;5117013;27;45378;-63
2023/01/22 00:23:17;;;;;;;;;135.00;105.00;;;;;1.16;81.56;103097.41;5116581;27;45506;-63
2023/01/22 00:25:43;;;;;;;;;173.75;136.75;;;;;1.07;82.01;103086.53;5138488;27;45382;-63
2023/01/22 00:28:08;;;;;;;;;193.00;154.00;;;;;1.13;81.54;103091.16;5128709;27;45817;-63
2023/01/22 00:30:34;;;;;;;;;214.33;168.33;;;;;1.08;82.20;103085.72;5138233;27;45468;-63
2023/01/22 00:32:59;;;;;;;;;182.50;153.25;;;;;1.12;81.81;103086.75;5133898;27;45710;-63
2023/01/22 00:35:25;;;;;;;;;147.00;129.50;;;;;1.12;81.99;103089.34;5122748;27;46659;-63
2023/01/22 00:37:50;;;;;;;;;147.25;123.50;;;;;1.08;82.56;103077.06;5117408;27;46391;-63
2023/01/22 00:40:16;;;;;;;;;113.00;97.00;;;;;1.11;82.64;103085.00;5117073;27;45332;-63
2023/01/22 00:42:42;;;;;;;;;133.25;108.25;;;;;1.05;82.45;103070.00;5116178;27;45320;-63
2023/01/22 00:45:08;;;;;;;;;109.00;94.00;;;;;1.03;82.53;103066.41;5116173;27;45335;-62
2023/01/22 00:47:34;;;;;;;;;102.50;78.50;;;;;1.08;82.20;103075.34;5118031;27;45739;-62
2023/01/22 00:50:00;;;;;;;;;96.00;69.00;;;;;1.01;82.50;103065.44;5120560;27;45227;-62
2023/01/22 00:52:25;;;;;;;;;91.75;69.75;;;;;1.06;82.35;103063.09;5115239;27;45334;-62
2023/01/22 00:54:51;;;;;;;;;87.00;66.00;;;;;1.02;82.56;103067.25;5116264;27;45850;-62
2023/01/22 00:57:20;;;;;;;;;87.67;62.67;;;;;1.00;82.35;103061.97;5113933;27;45818;-61
2023/01/22 00:59:46;;;;;;;;;79.00;59.67;;;;;0.95;82.31;103057.34;5115910;27;45464;-60
2023/01/22 01:02:11;;;;;;;;;82.33;57.67;;;;;0.99;82.90;103067.94;5116110;27;45525;-61
2023/01/22 01:04:37;;;;;;;;;75.00;58.33;;;;;0.97;83.38;103066.97;5116563;27;45488;-62
2023/01/22 01:07:03;;;;;;;;;75.00;55.00;;;;;1.01;82.95;103073.22;5119206;27;47011;-63
2023/01/22 01:09:29;;;;;;;;;65.67;47.33;;;;;0.96;82.74;103072.97;5119758;27;45493;-62
2023/01/22 01:11:54;;;;;;;;;68.67;51.00;;;;;0.97;82.94;103071.25;5119827;27;45597;-62
2023/01/22 01:14:19;;;;;;;;;75.00;52.00;;;;;0.95;82.80;103062.53;5118584;27;45497;-62
2023/01/22 01:16:44;;;;;;;;;71.00;51.50;;;;;0.97;82.84;103063.47;5119685;27;46295;-62
2023/01/22 01:19:11;;;;;;;;;72.00;54.33;;;;;0.98;83.19;103066.16;5119842;27;45295;-62
2023/01/22 01:21:37;;;;;;;;;72.50;50.50;;;;;0.95;82.77;103062.53;5119949;27;45949;-62
2023/01/22 01:24:03;;;;;;;;;68.00;50.67;;;;;0.99;82.51;103069.66;5119923;27;46503;-62
2023/01/22 01:26:29;;;;;;;;;71.33;50.33;;;;;0.73;82.89;103032.81;5119374;27;46535;-63
2023/01/22 01:28:55;;;;;;;;;63.00;46.00;;;;;0.90;82.66;103066.56;5117962;27;45467;-61
2023/01/22 01:31:22;;;;;;;;;66.00;48.33;;;;;0.94;82.46;103066.78;5119691;27;45394;-62
2023/01/22 01:33:48;;;;;;;;;64.33;49.33;;;;;0.95;82.54;103070.31;5119995;27;45480;-63
2023/01/22 01:36:20;;;;;;;;;63.67;44.67;;;;;0.92;82.56;103070.16;5119191;27;45605;-63
2023/01/22 01:38:46;;;;;;;;;69.00;48.00;;;;;0.92;82.61;103064.94;5120036;27;45374;-63
2023/01/22 01:41:14;;;;;;;;;60.00;42.33;;;;;0.92;82.60;103068.44;5120751;27;45472;-63
2023/01/22 01:43:40;;;;;;;;;66.33;48.67;;;;;0.82;82.59;103061.84;5120266;27;45492;-63
2023/01/22 01:46:19;;;;;;;;;55.67;43.67;;;;;0.84;83.00;103075.81;5124936;27;45800;-63
2023/01/22 01:48:47;;;;;;;;;48.33;42.00;;;;;0.81;82.43;103074.72;5141512;27;45248;-63
2023/01/22 01:51:34;;;;;;;;;46.00;36.33;;;;;0.89;82.32;103081.22;5141488;27;45462;-63
2023/01/22 01:54:02;;;;;;;;;59.00;42.33;;;;;0.88;82.16;103081.16;5141776;27;45243;-62
2023/01/22 01:56:43;;;;;;;;;59.33;46.00;;;;;0.85;82.39;103081.88;5141302;27;45516;-62
2023/01/22 01:59:13;;;;;;;;;62.00;44.00;;;;;0.80;82.63;103088.47;5141313;27;45368;-62
2023/01/22 02:01:38;;;;;;;;;60.67;42.67;;;;;0.81;82.37;103092.88;5117278;27;45639;-62
2023/01/22 02:04:05;;;;;;;;;58.67;43.00;;;;;0.81;82.24;103090.28;5132936;27;45566;-63
2023/01/22 02:06:30;;;;;;;;;58.67;44.67;;;;;0.67;82.55;103069.66;5118888;27;46385;-63
2023/01/22 02:08:56;;;;;;;;;57.67;45.67;;;;;0.61;82.56;103065.84;5119979;27;45467;-63
2023/01/22 02:11:22;;;;;;;;;65.67;48.00;;;;;0.67;83.07;103086.94;5120579;27;45906;-62
2023/01/22 02:14:00;;;;;;;;;65.67;45.00;;;;;0.65;82.98;103083.34;5119497;27;45391;-63
2023/01/22 02:16:25;;;;;;;;;50.00;40.00;;;;;0.51;82.74;103057.56;5098991;27;46150;-63
2023/01/22 02:18:51;;;;;;;;;67.00;47.00;;;;;0.51;83.07;103067.03;5124967;27;45379;-63
2023/01/22 02:21:36;;;;;;;;;72.33;52.33;;;;;0.54;83.18;103074.97;5120436;27;45247;-63
2023/01/22 02:24:08;;;;;;;;;59.00;45.67;;;;;0.56;83.40;103077.66;5119520;27;45491;-63
2023/01/22 02:26:34;;;;;;;;;54.33;42.33;;;;;0.58;83.60;103076.94;5119914;27;46362;-63
2023/01/22 02:28:59;;;;;;;;;60.00;46.00;;;;;0.62;83.61;103078.88;5119907;27;45224;-62
2023/01/22 02:31:25;;;;;;;;;67.00;48.00;;;;;0.59;83.05;103076.13;5119768;27;45499;-62
2023/01/22 02:33:50;;;;;;;;;58.67;44.67;;;;;0.56;82.75;103072.47;5119389;27;45751;-62
2023/01/22 02:36:15;;;;;;;;;63.67;45.67;;;;;0.51;82.80;103070.50;5140650;27;45402;-62
2023/01/22 02:38:41;;;;;;;;;60.67;42.00;;;;;0.50;82.96;103073.91;5133688;27;45266;-62
2023/01/22 02:41:07;;;;;;;;;62.00;47.00;;;;;0.38;82.76;103046.41;5120050;27;45407;-62
2023/01/22 02:43:32;;;;;;;;;48.33;36.67;;;;;0.51;83.31;103078.28;5120029;27;45383;-62
2023/01/22 02:45:58;;;;;;;;;62.67;46.00;;;;;0.25;83.44;103029.28;5118734;27;46497;-62
2023/01/22 02:48:23;;;;;;;;;50.33;42.00;;;;;0.48;82.63;103072.94;5119602;27;45398;-62
2023/01/22 02:50:48;;;;;;;;;55.67;43.67;;;;;0.46;82.96;103056.38;5119996;27;45330;-62
2023/01/22 02:53:14;;;;;;;;;50.33;42.33;;;;;0.42;82.17;103059.63;5138610;27;45776;-61
2023/01/22 02:55:39;;;;;;;;;65.33;47.33;;;;;0.44;82.67;103070.97;5140242;27;46691;-61
2023/01/22 02:58:04;;;;;;;;;64.67;45.00;;;;;0.42;83.18;103080.38;5140483;27;45419;-61
2023/01/22 03:00:30;;;;;;;;;57.67;43.00;;;;;0.37;82.32;103070.56;5135593;27;45948;-61
2023/01/22 03:02:55;;;;;;;;;65.33;46.00;;;;;0.30;82.74;103079.66;5119644;27;45512;-61
2023/01/22 03:05:21;;;;;;;;;63.33;45.67;;;;;0.31;82.54;103078.88;5118532;27;46093;-61
2023/01/22 03:07:47;;;;;;;;;70.67;45.33;;;;;0.14;83.03;103055.44;5118450;27;45499;-61
2023/01/22 03:10:18;;;;;;;;;67.00;49.33;;;;;0.28;82.73;103081.28;5135664;27;45523;-61
2023/01/22 03:23:44;;;;;;;;;65.00;46.67;;;;;0.39;82.99;103058.56;5119161;27;45303;-62
2023/01/22 03:26:10;;;;;;;;;62.00;44.67;;;;;0.44;83.28;103070.09;5121868;27;46310;-62
2023/01/22 03:28:36;;;;;;;;;65.33;47.00;;;;;0.48;82.80;103075.53;5139577;27;45333;-61
2023/01/22 03:31:01;;;;;;;;;67.00;47.67;;;;;0.42;82.72;103067.41;5136881;27;46910;-61
2023/01/22 03:33:27;;;;;;;;;63.67;46.67;;;;;0.41;83.45;103060.44;5119060;27;45382;-62
2023/01/22 03:35:52;;;;;;;;;58.33;42.67;;;;;0.48;83.06;103065.16;5118977;27;46564;-61
2023/01/22 03:38:18;;;;;;;;;68.67;45.67;;;;;0.52;82.76;103061.94;5119151;27;45429;-62
2023/01/22 03:40:43;;;;;;;;;45.00;40.00;;;;;0.55;82.32;103055.13;5118364;27;45514;-61
2023/01/22 03:43:08;;;;;;;;;59.00;44.33;;;;;0.50;82.71;103047.09;5127751;27;45374;-62
2023/01/22 03:45:34;;;;;;;;;50.33;40.67;;;;;0.46;82.56;103047.72;5124944;27;46244;-62
2023/01/22 03:48:01;;;;;;;;;61.67;46.33;;;;;0.42;83.16;103048.34;5118650;27;45322;-62
2023/01/22 03:50:26;;;;;;;;;56.67;42.00;;;;;0.41;83.40;103051.78;5118974;27;45453;-61
2023/01/22 03:52:52;;;;;;;;;64.00;42.67;;;;;0.39;83.41;103043.88;5118943;27;45464;-61
2023/01/22 03:55:17;;;;;;;;;63.67;38.33;;;;;0.49;82.81;103053.09;5115321;27;46315;-61
2023/01/22 03:57:42;;;;;;;;;56.67;33.67;;;;;0.47;83.01;103053.00;5118490;27;45332;-62
2023/01/22 04:00:08;;;;;;;;;57.67;40.33;;;;;0.47;83.78;103049.53;5117702;27;45495;-62
2023/01/22 04:02:34;;;;;;;;;52.00;42.00;;;;;0.40;83.66;103044.81;5097797;27;45249;-62
2023/01/22 04:04:59;;;;;;;;;48.67;42.00;;;;;0.45;84.18;103049.44;5097847;27;45465;-62
2023/01/22 04:07:25;;;;;;;;;58.33;42.33;;;;;0.46;84.47;103027.88;5107185;27;45459;-63
2023/01/22 04:09:50;;;;;;;;;52.00;40.33;;;;;0.62;84.22;103052.94;5117591;27;45427;-64
2023/01/22 04:12:16;;;;;;;;;58.00;44.00;;;;;0.64;83.52;103045.25;5122529;27;45417;-64
2023/01/22 04:14:41;;;;;;;;;53.33;41.67;;;;;0.56;83.47;103046.56;5126785;27;47104;-64
2023/01/22 04:17:06;;;;;;;;;61.00;45.00;;;;;0.62;83.54;103049.47;5118317;27;45324;-64
2023/01/22 04:19:32;;;;;;;;;60.67;42.67;;;;;0.67;84.23;103041.16;5118410;27;45456;-64
2023/01/22 04:21:57;;;;;;;;;61.33;43.33;;;;;0.76;83.64;103045.94;5116894;27;45405;-64
2023/01/22 04:24:22;;;;;;;;;45.33;36.00;;;;;0.72;83.41;103036.22;5118001;27;45336;-63
2023/01/22 04:26:48;;;;;;;;;61.00;43.00;;;;;0.78;83.06;103033.94;5118498;27;45421;-63
2023/01/22 04:29:13;;;;;;;;;56.00;38.33;;;;;0.77;82.70;103026.09;5131518;27;45309;-63
2023/01/22 04:31:38;;;;;;;;;70.67;45.67;;;;;0.85;82.64;103032.59;5139361;27;45377;-63
2023/01/22 04:34:04;;;;;;;;;45.00;40.33;;;;;0.85;82.42;103040.38;5129277;27;46308;-63
2023/01/22 04:36:29;;;;;;;;;62.33;39.33;;;;;0.81;83.13;103039.34;5118070;27;45370;-63
2023/01/22 04:38:55;;;;;;;;;52.33;41.33;;;;;0.83;82.91;103031.63;5118343;27;45849;-63
2023/01/22 04:41:20;;;;;;;;;55.67;44.33;;;;;0.90;82.65;103049.31;5120309;27;45438;-63
2023/01/22 04:43:45;;;;;;;;;61.67;42.33;;;;;0.81;82.94;103025.44;5120899;27;46220;-64
2023/01/22 04:46:11;;;;;;;;;56.67;41.67;;;;;0.83;82.85;103029.03;5135490;27;45388;-63
2023/01/22 04:48:36;;;;;;;;;49.00;39.67;;;;;0.93;82.77;103045.97;5142403;27;45352;-64
2023/01/22 04:51:01;;;;;;;;;48.00;41.00;;;;;0.84;82.37;103023.94;5142929;27;45417;-63
2023/01/22 04:53:27;;;;;;;;;45.00;40.00;;;;;0.92;82.10;103037.31;5129767;27;46370;-63
2023/01/22 04:55:52;;;;;;;;;37.00;36.33;;;;;0.86;82.65;103042.16;5121689;27;45386;-63
2023/01/22 04:58:17;;;;;;;;;55.00;40.67;;;;;0.87;82.55;103043.94;5120963;27;45413;-63
2023/01/22 05:00:43;;;;;;;;;48.33;39.33;;;;;0.89;82.95;103046.59;5124206;27;45342;-63
2023/01/22 05:03:09;;;;;;;;;48.00;38.67;;;;;0.84;83.14;103039.50;5126073;27;46697;-63
2023/01/22 05:05:34;;;;;;;;;44.00;35.00;;;;;0.87;83.21;103038.75;5121363;27;45410;-63
2023/01/22 05:08:00;;;;;;;;;60.33;42.67;;;;;0.79;82.90;103025.38;5121551;27;45371;-63
2023/01/22 05:10:26;;;;;;;;;50.33;37.00;;;;;0.88;83.43;103032.75;5121332;27;45799;-63
2023/01/22 05:12:51;;;;;;;;;52.33;39.00;;;;;0.95;83.65;103031.41;5120924;27;45413;-63
2023/01/22 05:15:17;;;;;;;;;50.00;39.33;;;;;1.01;82.96;103042.09;5121254;27;45373;-63
2023/01/22 05:17:43;;;;;;;;;51.00;36.00;;;;;1.03;82.95;103024.91;5120525;27;45280;-62
2023/01/22 05:20:09;;;;;;;;;50.33;41.33;;;;;1.03;83.50;103023.22;5139850;27;45776;-63
2023/01/22 05:22:34;;;;;;;;;52.67;39.67;;;;;1.01;82.68;103021.34;5137724;27;45601;-63
2023/01/22 05:25:00;;;;;;;;;79.00;57.00;;;;;1.09;83.14;103035.63;5121113;27;45449;-63
2023/01/22 05:27:25;;;;;;;;;55.33;43.67;;;;;1.13;83.59;103041.84;5121216;27;45385;-62
2023/01/22 05:29:51;;;;;;;;;57.67;43.00;;;;;1.09;82.79;103034.72;5121310;27;45534;-62
2023/01/22 05:32:16;;;;;;;;;66.67;43.67;;;;;1.13;82.87;103042.72;5120921;27;46289;-63
2023/01/22 05:34:42;;;;;;;;;48.33;34.33;;;;;1.13;83.19;103045.31;5120264;27;45393;-62
2023/01/22 05:37:07;;;;;;;;;59.67;42.00;;;;;1.10;82.45;103042.56;5141905;27;45365;-63
2023/01/22 05:39:32;;;;;;;;;55.00;39.33;;;;;0.83;82.81;102997.91;5130001;27;45315;-63
2023/01/22 05:41:58;;;;;;;;;56.67;40.00;;;;;1.04;83.18;103035.34;5120747;27;45456;-62
2023/01/22 05:44:25;;;;;;;;;56.67;42.33;;;;;1.18;83.24;103055.97;5120831;27;45356;-63
2023/01/22 05:46:50;;;;;;;;;52.67;42.00;;;;;1.10;82.95;103026.13;5120863;27;45249;-63
2023/01/22 05:49:16;;;;;;;;;53.67;35.33;;;;;1.19;82.99;103052.56;5120828;27;45319;-63
2023/01/22 05:51:41;;;;;;;;;50.67;39.33;;;;;1.17;82.92;103036.91;5121527;27;46686;-63
2023/01/22 05:54:07;;;;;;;;;40.67;37.33;;;;;1.29;82.69;103049.63;5120680;27;45306;-63
2023/01/22 05:56:32;;;;;;;;;61.67;43.00;;;;;1.29;83.21;103046.16;5120425;27;45370;-62
2023/01/22 05:58:57;;;;;;;;;52.00;39.33;;;;;1.30;83.43;103035.84;5120845;27;45276;-62
2023/01/22 06:01:23;;;;;;;;;55.00;40.00;;;;;1.31;83.15;103029.84;5120313;27;46044;-62
2023/01/22 06:03:48;;;;;;;;;44.67;32.33;;;;;1.29;82.81;103020.19;5120237;27;45335;-62
2023/01/22 06:06:14;;;;;;;;;64.00;43.33;;;;;1.37;82.76;103034.47;5120526;27;45436;-62
2023/01/22 06:08:40;;;;;;;;;63.33;43.33;;;;;1.36;83.00;103040.47;5136240;27;45443;-62
2023/01/22 06:11:09;;;;;;;;;49.00;42.33;;;;;1.40;82.36;103047.63;5134404;27;46355;-61
2023/01/22 06:13:35;;;;;;;;;54.33;42.33;;;;;1.41;82.54;103051.09;5120447;27;45399;-62
2023/01/22 06:16:01;;;;;;;;;54.67;40.67;;;;;1.31;82.71;103023.78;5119982;27;45401;-62
2023/01/22 06:18:27;;;;;;;;;53.67;38.00;;;;;1.40;82.38;103037.22;5120352;27;45429;-62
2023/01/22 06:20:57;;;;;;;;;48.33;39.33;;;;;1.43;82.69;103055.56;5120232;27;46540;-62
2023/01/22 06:23:24;;;;;;;;;30.67;20.33;;;;;1.14;83.20;102995.22;5118387;27;45448;-62
2023/01/22 06:25:54;;;;;;;;;46.67;36.33;;;;;1.45;82.82;103047.84;5120182;27;45472;-63
2023/01/22 06:28:20;;;;;;;;;58.33;42.33;;;;;1.47;82.81;103046.25;5120471;27;45711;-62
2023/01/22 06:30:45;;;;;;;;;48.00;39.00;;;;;1.53;82.94;103050.03;5119929;27;46559;-62
2023/01/22 06:33:11;;;;;;;;;50.67;39.00;;;;;1.52;82.17;103042.16;5119313;27;45282;-62
2023/01/22 06:35:36;;;;;;;;;59.00;42.00;;;;;1.54;82.84;103033.66;5104529;27;45451;-62
2023/01/22 06:38:02;;;;;;;;;55.33;42.00;;;;;1.46;82.47;103023.69;5100347;27;45162;-62
2023/01/22 06:40:27;;;;;;;;;52.33;40.00;;;;;1.58;82.79;103034.69;5133029;27;45948;-62
2023/01/22 06:42:53;;;;;;;;;53.67;37.67;;;;;1.56;82.46;103031.13;5140581;27;45402;-62
2023/01/22 06:45:18;;;;;;;;;52.00;40.00;;;;;1.55;82.17;103022.47;5133591;27;45393;-62
2023/01/22 06:47:44;;;;;;;;;44.33;38.00;;;;;1.59;82.42;103023.50;5120007;27;45550;-62
2023/01/22 06:50:11;;;;;;;;;48.00;32.00;;;;;1.56;81.48;103015.56;5119502;27;45678;-61
2023/01/22 06:52:37;;;;;;;;;54.33;38.67;;;;;1.55;81.53;103014.69;5117815;27;45429;-61
2023/01/22 06:55:03;;;;;;;;;43.33;35.00;;;;;1.60;81.34;103014.91;5119358;27;45350;-61
2023/01/22 06:57:28;;;;;;;;;46.33;37.67;;;;;1.61;81.03;103011.47;5130620;27;45312;-61
2023/01/22 06:59:53;;;;;;;;;42.67;30.67;;;;;1.62;81.18;103010.66;5140208;27;46122;-60
2023/01/22 07:02:19;;;;;;;;;36.33;29.33;;;;;1.50;80.25;102982.38;5140244;27;45233;-61
2023/01/22 07:04:44;;;;;;;;;37.00;30.33;;;;;1.77;79.83;103027.84;5129499;27;45467;-61
2023/01/22 07:07:10;;;;;;;;;31.67;23.00;;;;;1.76;79.83;103024.38;5118701;27;45368;-61
2023/01/22 07:09:35;;;;;;;;;34.33;25.67;;;;;1.73;79.07;103029.41;5119292;27;45442;-61
2023/01/22 07:12:01;;;;;;;;;31.00;23.00;;;;;1.60;78.81;103001.91;5119256;27;45565;-61
2023/01/22 07:14:27;;;;;;;;;32.33;28.33;;;;;1.89;78.81;103037.13;5132514;27;45432;-61
2023/01/22 07:16:54;;;;;;;;;29.67;24.33;;;;;1.93;78.36;103040.78;5140364;27;45479;-60
2023/01/22 07:19:19;;;;;;;;;27.00;21.00;;;;;1.98;77.64;103041.91;5121151;27;45469;-60
2023/01/22 07:21:44;;;;;;;;;29.00;24.00;;;;;1.95;77.98;103025.25;5119050;27;45477;-61
2023/01/22 07:24:10;;;;;;;;;22.33;21.00;;;;;2.06;78.18;103040.59;5118398;27;45503;-61
2023/01/22 07:26:36;;;;;;;;;27.00;22.00;;;;;2.00;77.48;103023.78;5119336;27;45372;-61
2023/01/22 07:29:01;;;;;;;;;27.67;19.00;;;;;2.05;77.62;103033.59;5119784;27;46406;-62
2023/01/22 07:31:27;;;;;;;;;35.33;24.67;;;;;2.16;76.29;103052.31;5139691;27;45469;-61
2023/01/22 07:33:52;;;;;;;;;30.33;22.67;;;;;2.01;76.62;103017.78;5140042;27;45546;-62
2023/01/22 07:36:18;;;;;;;;;27.67;22.33;;;;;2.19;76.90;103047.28;5139728;27;45590;-62
2023/01/22 07:38:43;;;;;;;;;25.67;21.67;;;;;2.18;76.51;103045.50;5121681;27;46151;-62
2023/01/22 07:41:08;;;;;;;;;34.67;26.00;;;;;1.95;75.49;103002.78;5118892;27;45488;-62
2023/01/22 07:43:34;;;;;;;;;22.67;16.67;;;;;2.22;76.33;103046.53;5118014;27;45444;-62
2023/01/22 07:46:01;;;;;;;;;25.33;21.33;;;;;2.22;76.10;103039.63;5123773;27;45336;-62
2023/01/22 07:48:26;;;;;;;;;33.00;23.00;;;;;2.27;75.78;103047.66;5139511;27;45588;-62
2023/01/22 07:50:52;;;;;;;;;25.33;21.00;;;;;2.25;74.33;103042.38;5139262;27;45634;-62
2023/01/22 07:53:17;;;;;;;;;25.67;22.33;;;;;2.27;74.54;103047.66;5125280;27;45763;-62
2023/01/22 07:55:43;;;;;;;;;21.33;21.00;;;;;2.25;74.84;103049.25;5117943;27;45503;-62
2023/01/22 07:58:09;;;;;;;;;23.00;20.67;;;;;2.32;74.62;103047.88;5118553;27;46725;-62
2023/01/22 08:00:35;;;;;;;;;23.33;18.33;;;;;2.29;74.65;103030.41;5118438;27;45484;-62
2023/01/22 08:03:03;;;;;;;;;23.33;19.33;;;;;2.35;74.29;103040.22;5117755;27;45425;-62
2023/01/22 08:05:29;;;;;;;;;23.67;17.33;;;;;2.33;73.88;103027.16;5129143;27;45507;-62
2023/01/22 08:07:57;;;;;;;;;19.00;14.33;;;;;2.38;72.71;103032.56;5118075;27;46360;-62
2023/01/22 08:10:22;;;;;;;;;20.33;16.00;;;;;2.35;72.10;103033.31;5117188;27;45414;-62
2023/01/22 08:12:48;;;;;;;;;20.33;13.00;;;;;2.31;72.28;103018.41;5118308;27;45399;-63
2023/01/22 08:15:13;;;;;;;;;14.67;14.67;;;;;2.37;72.76;103026.47;5115442;27;45405;-62
2023/01/22 08:17:39;;;;;;;;;26.33;18.67;;;;;2.49;72.53;103027.88;5118137;27;45844;-62
2023/01/22 08:20:05;;;;;;;;;18.33;14.33;;;;;2.52;73.04;103030.63;5122076;27;45965;-62
2023/01/22 08:22:31;;;;;;;;;21.00;16.67;;;;;2.59;71.32;103037.91;5137560;27;45491;-62
2023/01/22 08:24:56;;;;;;;;;17.33;15.67;;;;;2.56;71.86;103032.56;5118144;27;45395;-62
2023/01/22 08:27:22;;;;;;;;;23.00;17.33;;;;;2.61;71.88;103037.16;5117157;27;45587;-62
2023/01/22 08:29:50;;;;;;;;;17.67;15.33;;;;;2.68;72.02;103040.03;5118129;27;45424;-62
2023/01/22 08:32:17;;;;;;;;;16.00;15.33;;;;;2.70;71.57;103035.78;5118095;27;45256;-62
2023/01/22 08:34:42;;;;;;;;;16.00;15.67;;;;;2.74;71.41;103038.59;5117326;27;45427;-62
2023/01/22 08:37:07;;;;;;;;;18.33;14.00;;;;;2.88;71.52;103044.47;5129041;27;47226;-62
2023/01/22 08:39:33;;;;;;;;;16.00;15.33;;;;;2.89;71.78;103041.06;5132039;27;45403;-62
2023/01/22 08:41:58;;;;;;;;;23.67;19.67;;;;;2.96;71.33;103047.41;5117879;27;45402;-62
2023/01/22 08:44:24;;;;;;;;;17.67;16.00;;;;;3.03;71.46;103041.66;5117337;27;45374;-62
2023/01/22 08:46:50;;;;;;;;;18.33;16.33;;;;;3.04;70.90;103038.25;5117555;27;46341;-63
2023/01/22 08:49:17;;;;;;;;;22.67;17.33;;;;;3.13;70.30;103053.38;5117828;27;45363;-62
2023/01/22 08:51:42;;;;;;;;;20.00;17.00;;;;;3.19;70.59;103055.38;5117850;27;45445;-61
2023/01/22 08:54:07;;;;;;;;;15.33;14.67;;;;;3.23;70.73;103049.50;5113079;27;45501;-63
2023/01/22 08:56:33;;;;;;;;;19.00;12.00;;;;;3.31;70.89;103055.91;5117495;27;45455;-66
2023/01/22 08:59:00;;;;;;;;;20.33;17.67;;;;;3.28;70.15;103046.28;5117054;27;45303;-66
2023/01/22 09:01:26;;;;;;;;;17.67;14.33;;;;;3.36;70.26;103050.94;5117425;27;45421;-67
2023/01/22 09:03:51;;;;;;;;;22.67;18.67;;;;;3.45;70.01;103057.41;5116504;27;45543;-66
2023/01/22 09:06:17;;;;;;;;;25.00;18.33;;;;;3.52;70.17;103058.59;5116529;27;45547;-66
2023/01/22 09:08:42;;;;;;;;;16.67;13.67;;;;;3.55;70.08;103065.66;5118922;27;45517;-65
2023/01/22 09:11:07;;;;;;;;;24.33;20.67;;;;;3.56;69.99;103051.78;5125647;27;45412;-66
2023/01/22 09:13:33;;;;;;;;;30.00;27.33;;;;;3.65;69.78;103054.81;5116110;27;46842;-66
2023/01/22 09:15:58;;;;;;;;;26.00;21.33;;;;;3.80;69.92;103060.66;5114555;27;46210;-66
2023/01/22 09:18:24;;;;;;;;;23.33;21.00;;;;;3.88;69.34;103065.31;5117320;27;45481;-66
2023/01/22 09:20:50;;;;;;;;;38.33;28.33;;;;;3.89;69.81;103064.50;5117180;27;45369;-66
2023/01/22 09:23:15;;;;;;;;;27.67;23.33;;;;;3.73;69.05;103037.81;5116916;27;45465;-66
2023/01/22 09:25:41;;;;;;;;;29.67;27.00;;;;;3.96;68.97;103058.72;5113777;27;45484;-66
2023/01/22 09:28:08;;;;;;;;;20.33;20.00;;;;;4.03;69.41;103060.75;5116192;27;45517;-66
2023/01/22 09:30:34;;;;;;;;;32.33;26.67;;;;;4.14;69.59;103074.25;5124484;27;45522;-67
2023/01/22 09:33:00;;;;;;;;;28.67;24.67;;;;;4.22;69.58;103072.84;5142056;27;45639;-67
2023/01/22 09:35:27;;;;;;;;;23.00;22.00;;;;;4.26;68.44;103073.88;5135500;27;46068;-66
2023/01/22 09:37:53;;;;;;;;;37.67;34.00;;;;;4.21;68.87;103047.56;5120138;27;45505;-66
2023/01/22 09:40:33;;;;;;;;;22.00;21.67;;;;;4.40;68.73;103074.41;5120104;27;45630;-67
2023/01/22 09:43:19;;;;;;;;;26.67;21.67;;;;;4.48;69.08;103073.00;5119543;27;45392;-65
2023/01/22 09:45:45;;;;;;;;;23.00;22.00;;;;;4.51;68.90;103071.41;5131841;27;45385;-65
2023/01/22 09:48:17;;;;;;;;;28.33;23.67;;;;;4.58;68.37;103069.94;5141507;27;45274;-65
2023/01/22 09:50:43;;;;;;;;;21.67;17.33;;;;;4.63;67.97;103081.47;5141465;27;45452;-65
2023/01/22 09:53:15;;;;;;;;;23.00;21.00;;;;;4.61;68.08;103072.66;5141422;27;45415;-65
2023/01/22 09:55:51;;;;;;;;;28.00;22.00;;;;;4.73;68.14;103094.84;5127842;27;45300;-64
2023/01/22 09:58:22;;;;;;;;;28.00;24.33;;;;;4.69;67.61;103092.13;5119934;27;45391;-65
2023/01/22 10:00:53;;;;;;;;;27.00;23.67;;;;;4.69;68.20;103086.91;5120364;27;45253;-66
2023/01/22 10:03:28;;;;;;;;;33.33;27.00;;;;;4.75;67.74;103086.28;5119049;27;45451;-65
2023/01/22 10:06:03;;;;;;;;;33.00;25.33;;;;;4.78;66.23;103086.38;5114111;27;46151;-65
2023/01/22 10:08:37;;;;;;;;;33.67;26.33;;;;;4.87;66.47;103071.06;5120093;27;45327;-65
2023/01/22 10:11:03;;;;;;;;;32.67;31.00;;;;;5.19;67.58;103078.34;5129314;27;45317;-65
2023/01/22 10:13:32;;;;;;;;;31.33;25.00;;;;;5.26;65.69;103067.31;5137684;27;45239;-65
2023/01/22 10:15:58;;;;;;;;;30.67;21.33;;;;;5.52;65.90;103073.47;5140925;27;46341;-65
2023/01/22 10:18:47;;;;;;;;;28.00;21.00;;;;;5.57;64.49;103061.44;5140895;27;45570;-65
2023/01/22 10:21:20;;;;;;;;;27.33;23.67;;;;;5.65;64.84;103071.28;5141130;27;45432;-65
2023/01/22 10:23:48;;;;;;;;;28.67;22.33;;;;;5.57;64.68;103074.50;5141064;27;45485;-65
2023/01/22 10:26:40;;;;;;;;;30.67;26.00;;;;;5.65;64.42;103076.50;5139096;27;46664;-65
2023/01/22 10:29:26;;;;;;;;;31.00;27.67;;;;;5.81;63.76;103078.84;5140939;27;45478;-65
2023/01/22 10:31:58;;;;;;;;;29.00;23.33;;;;;5.95;65.61;103074.06;5129820;27;45460;-65
2023/01/22 10:34:41;;;;;;;;;33.00;29.00;;;;;6.12;64.44;103089.50;5140975;27;45415;-65
2023/01/22 10:37:17;;;;;;;;;34.00;27.00;;;;;6.18;63.84;103079.22;5138900;27;45499;-65
2023/01/22 10:39:45;;;;;;;;;30.67;22.33;;;;;6.25;62.94;103082.09;5138609;27;45385;-65
2023/01/22 10:42:22;;;;;;;;;29.00;25.00;;;;;6.18;62.21;103069.66;5139365;27;45324;-65
2023/01/22 10:44:48;;;;;;;;;25.67;25.67;;;;;6.57;63.91;103078.75;5140817;27;45316;-65
2023/01/22 10:47:22;;;;;;;;;27.00;22.33;;;;;6.62;61.23;103064.06;5136564;27;45720;-65
2023/01/22 10:49:59;;;;;;;;;40.67;35.33;;;;;6.71;61.07;103063.44;5125680;27;45319;-65
2023/01/22 10:52:34;;;;;;;;;29.67;23.67;;;;;6.92;61.38;103068.47;5140657;27;45341;-65
2023/01/22 10:55:01;;;;;;;;;27.00;23.00;;;;;7.04;59.83;103052.22;5140568;27;45271;-65
2023/01/22 10:57:33;;;;;;;;;23.00;20.00;;;;;7.36;60.26;103074.09;5140363;27;45315;-65
2023/01/22 11:00:34;;;;;;;;;19.67;17.33;;;;;7.56;60.83;103069.41;5140555;27;45307;-65
2023/01/22 11:03:12;;;;;;;;;25.00;21.00;;;;;7.64;59.87;103069.66;5056004;28;45565;-65
2023/01/22 11:05:41;;;;;;;;;29.00;19.00;;;;;7.49;57.66;103046.50;5054861;28;45522;-65
2023/01/22 11:08:14;;;;;;;;;31.00;27.00;;;;;7.32;58.10;103062.66;5055795;28;46100;-65
2023/01/22 11:11:08;;;;;;;;;26.67;18.33;;;;;7.17;57.69;103056.09;5055493;28;45344;-65
2023/01/22 11:13:40;;;;;;;;;33.67;24.00;;;;;7.01;59.09;103046.91;5055982;28;45485;-65
2023/01/22 11:16:15;;;;;;;;;23.00;20.00;;;;;6.92;59.21;103050.13;5056195;28;45503;-65
2023/01/22 11:18:59;;;;;;;;;19.33;15.00;;;;;6.78;58.98;103058.47;5055772;28;45980;-65
2023/01/22 11:21:35;;;;;;;;;21.33;16.33;;;;;6.58;59.78;103047.38;5054027;28;45465;-65
2023/01/22 11:24:07;;;;;;;;;23.00;20.33;;;;;6.49;59.71;103052.34;5055683;28;45776;-65
2023/01/22 11:26:54;;;;;;;;;24.33;19.67;;;;;6.36;59.30;103043.22;5056097;28;45315;-65
2023/01/22 11:29:52;;;;;;;;;22.67;18.00;;;;;6.19;60.50;103050.50;5055501;28;46499;-65